sensor_id;sensor_type;location;lat;lon;timestamp;P1;durP1;ratioP1;P2;durP2;ratioP2
21354;SDS011;10835;50.148;19.760;2023-10-13T00:00:28;13.35;;;7.18;;
21354;SDS011;10835;50.148;19.760;2023-10-13T00:03:01;11.77;;;6.50;;
21354;SDS011;10835;50.148;19.760;2023-10-13T00:05:49;12.48;;;6.18;;
21354;SDS011;10835;50.148;19.760;2023-10-13T00:08:37;11.75;;;7.10;;
21354;SDS011;10835;50.148;19.760;2023-10-13T00:11:25;16.33;;;7.97;;
21354;SDS011;10835;50.148;19.760;2023-10-13T00:13:55;10.15;;;6.55;;
21354;SDS011;10835;50.148;19.760;2023-10-13T00:16:24;14.38;;;7.35;;
21354;SDS011;10835;50.148;19.760;2023-10-13T00:18:54;10.90;;;6.38;;
21354;SDS011;10835;50.148;19.760;2023-10-13T00:21:24;9.13;;;6.13;;
21354;SDS011;10835;50.148;19.760;2023-10-13T00:23:59;11.15;;;6.70;;
21354;SDS011;10835;50.148;19.760;2023-10-13T00:26:33;16.50;;;6.60;;
21354;SDS011;10835;50.148;19.760;2023-10-13T00:29:04;10.88;;;6.22;;
21354;SDS011;10835;50.148;19.760;2023-10-13T00:31:42;17.10;;;7.38;;
21354;SDS011;10835;50.148;19.760;2023-10-13T00:34:15;14.25;;;6.22;;
21354;SDS011;10835;50.148;19.760;2023-10-13T00:36:46;12.45;;;6.15;;
21354;SDS011;10835;50.148;19.760;2023-10-13T00:39:37;10.65;;;6.13;;
21354;SDS011;10835;50.148;19.760;2023-10-13T00:42:10;12.32;;;5.68;;
21354;SDS011;10835;50.148;19.760;2023-10-13T00:44:48;9.38;;;5.93;;
21354;SDS011;10835;50.148;19.760;2023-10-13T00:47:16;12.95;;;5.45;;
21354;SDS011;10835;50.148;19.760;2023-10-13T00:49:59;8.07;;;4.72;;
21354;SDS011;10835;50.148;19.760;2023-10-13T00:52:28;9.90;;;5.43;;
21354;SDS011;10835;50.148;19.760;2023-10-13T00:54:57;9.68;;;5.72;;
21354;SDS011;10835;50.148;19.760;2023-10-13T00:57:27;12.20;;;5.20;;
21354;SDS011;10835;50.148;19.760;2023-10-13T00:59:57;8.55;;;5.20;;
21354;SDS011;10835;50.148;19.760;2023-10-13T01:02:39;9.90;;;5.45;;
21354;SDS011;10835;50.148;19.760;2023-10-13T01:05:07;12.65;;;5.13;;
21354;SDS011;10835;50.148;19.760;2023-10-13T01:07:38;10.00;;;4.78;;
21354;SDS011;10835;50.148;19.760;2023-10-13T01:10:09;7.40;;;4.97;;
21354;SDS011;10835;50.148;19.760;2023-10-13T01:12:40;7.68;;;4.93;;
21354;SDS011;10835;50.148;19.760;2023-10-13T01:15:12;8.15;;;4.32;;
21354;SDS011;10835;50.148;19.760;2023-10-13T01:17:44;13.15;;;5.32;;
21354;SDS011;10835;50.148;19.760;2023-10-13T01:20:12;10.25;;;4.72;;
21354;SDS011;10835;50.148;19.760;2023-10-13T01:22:48;9.23;;;4.75;;
21354;SDS011;10835;50.148;19.760;2023-10-13T01:25:23;7.43;;;3.95;;
21354;SDS011;10835;50.148;19.760;2023-10-13T01:27:55;11.43;;;4.38;;
21354;SDS011;10835;50.148;19.760;2023-10-13T01:30:23;11.40;;;5.55;;
21354;SDS011;10835;50.148;19.760;2023-10-13T01:32:53;9.95;;;5.20;;
21354;SDS011;10835;50.148;19.760;2023-10-13T01:35:21;9.40;;;4.55;;
21354;SDS011;10835;50.148;19.760;2023-10-13T01:37:57;11.88;;;5.18;;
21354;SDS011;10835;50.148;19.760;2023-10-13T01:40:25;11.82;;;5.40;;
21354;SDS011;10835;50.148;19.760;2023-10-13T01:43:00;15.10;;;5.43;;
21354;SDS011;10835;50.148;19.760;2023-10-13T01:45:31;13.43;;;5.05;;
21354;SDS011;10835;50.148;19.760;2023-10-13T01:47:59;7.97;;;4.28;;
21354;SDS011;10835;50.148;19.760;2023-10-13T01:50:28;14.00;;;4.13;;
21354;SDS011;10835;50.148;19.760;2023-10-13T01:52:57;10.43;;;4.63;;
21354;SDS011;10835;50.148;19.760;2023-10-13T01:55:39;8.02;;;4.97;;
21354;SDS011;10835;50.148;19.760;2023-10-13T01:58:10;10.88;;;4.28;;
21354;SDS011;10835;50.148;19.760;2023-10-13T02:00:41;10.20;;;4.78;;
21354;SDS011;10835;50.148;19.760;2023-10-13T02:03:11;7.63;;;4.00;;
21354;SDS011;10835;50.148;19.760;2023-10-13T02:05:42;12.75;;;4.38;;
21354;SDS011;10835;50.148;19.760;2023-10-13T02:08:13;9.73;;;4.80;;
21354;SDS011;10835;50.148;19.760;2023-10-13T02:10:50;8.35;;;4.80;;
21354;SDS011;10835;50.148;19.760;2023-10-13T02:13:19;8.05;;;4.93;;
21354;SDS011;10835;50.148;19.760;2023-10-13T02:15:52;9.45;;;5.65;;
21354;SDS011;10835;50.148;19.760;2023-10-13T02:18:24;12.98;;;6.68;;
21354;SDS011;10835;50.148;19.760;2023-10-13T02:21:02;12.88;;;7.18;;
21354;SDS011;10835;50.148;19.760;2023-10-13T02:23:31;14.88;;;7.55;;
21354;SDS011;10835;50.148;19.760;2023-10-13T02:26:01;15.02;;;7.05;;
21354;SDS011;10835;50.148;19.760;2023-10-13T02:28:38;17.60;;;6.45;;
21354;SDS011;10835;50.148;19.760;2023-10-13T02:31:06;11.82;;;6.32;;
21354;SDS011;10835;50.148;19.760;2023-10-13T02:33:34;15.50;;;6.90;;
21354;SDS011;10835;50.148;19.760;2023-10-13T02:36:11;12.95;;;7.53;;
21354;SDS011;10835;50.148;19.760;2023-10-13T02:38:39;13.02;;;6.78;;
21354;SDS011;10835;50.148;19.760;2023-10-13T02:41:15;13.55;;;6.47;;
21354;SDS011;10835;50.148;19.760;2023-10-13T02:43:46;13.65;;;7.40;;
21354;SDS011;10835;50.148;19.760;2023-10-13T02:46:14;12.10;;;6.03;;
21354;SDS011;10835;50.148;19.760;2023-10-13T02:48:43;16.55;;;6.68;;
21354;SDS011;10835;50.148;19.760;2023-10-13T02:51:20;10.20;;;6.00;;
21354;SDS011;10835;50.148;19.760;2023-10-13T02:53:52;10.10;;;6.00;;
21354;SDS011;10835;50.148;19.760;2023-10-13T02:56:22;10.48;;;5.97;;
21354;SDS011;10835;50.148;19.760;2023-10-13T02:58:52;9.57;;;5.55;;
21354;SDS011;10835;50.148;19.760;2023-10-13T03:01:23;20.02;;;7.03;;
21354;SDS011;10835;50.148;19.760;2023-10-13T03:03:56;14.57;;;5.72;;
21354;SDS011;10835;50.148;19.760;2023-10-13T03:06:26;10.65;;;4.93;;
21354;SDS011;10835;50.148;19.760;2023-10-13T03:08:59;8.35;;;5.43;;
21354;SDS011;10835;50.148;19.760;2023-10-13T03:11:42;10.38;;;5.65;;
21354;SDS011;10835;50.148;19.760;2023-10-13T03:14:15;10.10;;;5.78;;
21354;SDS011;10835;50.148;19.760;2023-10-13T03:16:58;9.70;;;5.70;;
21354;SDS011;10835;50.148;19.760;2023-10-13T03:19:33;7.78;;;4.43;;
21354;SDS011;10835;50.148;19.760;2023-10-13T03:22:02;10.45;;;5.38;;
21354;SDS011;10835;50.148;19.760;2023-10-13T03:24:36;14.80;;;5.43;;
21354;SDS011;10835;50.148;19.760;2023-10-13T03:27:13;13.70;;;5.32;;
21354;SDS011;10835;50.148;19.760;2023-10-13T03:29:45;14.15;;;5.22;;
21354;SDS011;10835;50.148;19.760;2023-10-13T03:32:14;10.23;;;5.20;;
21354;SDS011;10835;50.148;19.760;2023-10-13T03:34:43;9.02;;;5.15;;
21354;SDS011;10835;50.148;19.760;2023-10-13T03:37:37;10.38;;;5.60;;
21354;SDS011;10835;50.148;19.760;2023-10-13T03:40:07;9.80;;;4.20;;
21354;SDS011;10835;50.148;19.760;2023-10-13T03:42:58;9.43;;;4.50;;
21354;SDS011;10835;50.148;19.760;2023-10-13T03:45:32;8.60;;;5.22;;
21354;SDS011;10835;50.148;19.760;2023-10-13T03:48:05;11.25;;;4.60;;
21354;SDS011;10835;50.148;19.760;2023-10-13T03:50:37;9.93;;;4.40;;
21354;SDS011;10835;50.148;19.760;2023-10-13T03:53:13;5.57;;;3.10;;
21354;SDS011;10835;50.148;19.760;2023-10-13T03:55:42;7.65;;;4.10;;
21354;SDS011;10835;50.148;19.760;2023-10-13T03:58:16;7.88;;;4.43;;
21354;SDS011;10835;50.148;19.760;2023-10-13T04:00:45;11.73;;;4.97;;
21354;SDS011;10835;50.148;19.760;2023-10-13T04:03:15;9.95;;;4.13;;
21354;SDS011;10835;50.148;19.760;2023-10-13T04:05:45;5.32;;;3.78;;
21354;SDS011;10835;50.148;19.760;2023-10-13T04:08:28;9.98;;;4.20;;
21354;SDS011;10835;50.148;19.760;2023-10-13T04:11:35;7.50;;;4.30;;
21354;SDS011;10835;50.148;19.760;2023-10-13T04:14:38;7.35;;;4.15;;
21354;SDS011;10835;50.148;19.760;2023-10-13T04:17:22;6.68;;;3.60;;
21354;SDS011;10835;50.148;19.760;2023-10-13T04:19:53;9.65;;;4.22;;
21354;SDS011;10835;50.148;19.760;2023-10-13T04:22:37;11.40;;;4.03;;
21354;SDS011;10835;50.148;19.760;2023-10-13T04:25:20;8.07;;;4.20;;
21354;SDS011;10835;50.148;19.760;2023-10-13T04:28:02;10.57;;;3.75;;
21354;SDS011;10835;50.148;19.760;2023-10-13T04:30:46;8.25;;;3.60;;
21354;SDS011;10835;50.148;19.760;2023-10-13T04:33:27;5.93;;;3.42;;
21354;SDS011;10835;50.148;19.760;2023-10-13T04:36:11;8.70;;;3.85;;
21354;SDS011;10835;50.148;19.760;2023-10-13T04:38:49;9.68;;;4.57;;
21354;SDS011;10835;50.148;19.760;2023-10-13T04:41:24;7.22;;;4.03;;
21354;SDS011;10835;50.148;19.760;2023-10-13T04:43:58;9.07;;;4.43;;
21354;SDS011;10835;50.148;19.760;2023-10-13T04:46:33;10.25;;;3.80;;
21354;SDS011;10835;50.148;19.760;2023-10-13T04:49:21;7.10;;;3.40;;
21354;SDS011;10835;50.148;19.760;2023-10-13T04:51:57;7.88;;;4.35;;
21354;SDS011;10835;50.148;19.760;2023-10-13T04:54:28;6.55;;;3.78;;
21354;SDS011;10835;50.148;19.760;2023-10-13T04:57:01;5.93;;;3.45;;
21354;SDS011;10835;50.148;19.760;2023-10-13T04:59:47;9.73;;;4.30;;
21354;SDS011;10835;50.148;19.760;2023-10-13T05:03:04;7.30;;;3.80;;
21354;SDS011;10835;50.148;19.760;2023-10-13T05:05:50;4.93;;;3.17;;
21354;SDS011;10835;50.148;19.760;2023-10-13T05:08:40;12.50;;;3.70;;
21354;SDS011;10835;50.148;19.760;2023-10-13T05:11:45;9.75;;;4.20;;
21354;SDS011;10835;50.148;19.760;2023-10-13T05:14:49;7.38;;;3.22;;
21354;SDS011;10835;50.148;19.760;2023-10-13T05:17:36;6.22;;;3.60;;
21354;SDS011;10835;50.148;19.760;2023-10-13T05:20:23;6.28;;;3.58;;
21354;SDS011;10835;50.148;19.760;2023-10-13T05:23:07;7.32;;;3.90;;
21354;SDS011;10835;50.148;19.760;2023-10-13T05:25:53;7.82;;;3.80;;
21354;SDS011;10835;50.148;19.760;2023-10-13T05:28:39;8.57;;;4.18;;
21354;SDS011;10835;50.148;19.760;2023-10-13T05:31:43;5.43;;;3.53;;
21354;SDS011;10835;50.148;19.760;2023-10-13T05:34:29;10.27;;;4.70;;
21354;SDS011;10835;50.148;19.760;2023-10-13T05:37:35;9.45;;;4.53;;
21354;SDS011;10835;50.148;19.760;2023-10-13T05:40:40;7.18;;;4.75;;
21354;SDS011;10835;50.148;19.760;2023-10-13T05:43:36;8.23;;;3.75;;
21354;SDS011;10835;50.148;19.760;2023-10-13T05:46:27;6.55;;;4.05;;
21354;SDS011;10835;50.148;19.760;2023-10-13T05:49:27;12.40;;;4.05;;
21354;SDS011;10835;50.148;19.760;2023-10-13T05:52:13;7.47;;;4.05;;
21354;SDS011;10835;50.148;19.760;2023-10-13T05:55:12;16.10;;;4.43;;
21354;SDS011;10835;50.148;19.760;2023-10-13T05:57:58;9.45;;;3.67;;
21354;SDS011;10835;50.148;19.760;2023-10-13T06:00:46;7.53;;;4.50;;
21354;SDS011;10835;50.148;19.760;2023-10-13T06:03:32;7.30;;;5.10;;
21354;SDS011;10835;50.148;19.760;2023-10-13T06:06:19;5.63;;;4.20;;
21354;SDS011;10835;50.148;19.760;2023-10-13T06:09:05;12.30;;;4.50;;
21354;SDS011;10835;50.148;19.760;2023-10-13T06:11:51;9.52;;;4.30;;
21354;SDS011;10835;50.148;19.760;2023-10-13T06:14:37;7.53;;;3.55;;
21354;SDS011;10835;50.148;19.760;2023-10-13T06:17:23;7.55;;;4.38;;
21354;SDS011;10835;50.148;19.760;2023-10-13T06:20:10;8.40;;;4.80;;
21354;SDS011;10835;50.148;19.760;2023-10-13T06:22:57;9.00;;;4.47;;
21354;SDS011;10835;50.148;19.760;2023-10-13T06:25:43;6.88;;;3.85;;
21354;SDS011;10835;50.148;19.760;2023-10-13T06:28:34;7.93;;;4.60;;
21354;SDS011;10835;50.148;19.760;2023-10-13T06:31:12;13.95;;;5.35;;
21354;SDS011;10835;50.148;19.760;2023-10-13T06:33:49;7.45;;;4.47;;
21354;SDS011;10835;50.148;19.760;2023-10-13T06:36:18;14.93;;;5.53;;
21354;SDS011;10835;50.148;19.760;2023-10-13T06:38:49;10.40;;;4.80;;
21354;SDS011;10835;50.148;19.760;2023-10-13T06:41:43;8.88;;;5.10;;
21354;SDS011;10835;50.148;19.760;2023-10-13T06:44:11;11.07;;;5.22;;
21354;SDS011;10835;50.148;19.760;2023-10-13T06:46:43;10.18;;;6.32;;
21354;SDS011;10835;50.148;19.760;2023-10-13T06:49:12;10.35;;;5.95;;
21354;SDS011;10835;50.148;19.760;2023-10-13T06:51:41;11.60;;;6.03;;
21354;SDS011;10835;50.148;19.760;2023-10-13T06:54:11;8.18;;;5.32;;
21354;SDS011;10835;50.148;19.760;2023-10-13T06:56:47;13.15;;;5.90;;
21354;SDS011;10835;50.148;19.760;2023-10-13T06:59:19;15.02;;;6.57;;
21354;SDS011;10835;50.148;19.760;2023-10-13T07:01:53;16.75;;;6.88;;
21354;SDS011;10835;50.148;19.760;2023-10-13T07:04:46;14.77;;;7.25;;
21354;SDS011;10835;50.148;19.760;2023-10-13T07:07:15;17.13;;;7.30;;
21354;SDS011;10835;50.148;19.760;2023-10-13T07:09:44;13.43;;;7.93;;
21354;SDS011;10835;50.148;19.760;2023-10-13T07:12:22;22.83;;;12.73;;
21354;SDS011;10835;50.148;19.760;2023-10-13T07:14:53;13.18;;;7.20;;
21354;SDS011;10835;50.148;19.760;2023-10-13T07:17:26;11.65;;;5.85;;
21354;SDS011;10835;50.148;19.760;2023-10-13T07:19:59;11.27;;;6.80;;
21354;SDS011;10835;50.148;19.760;2023-10-13T07:22:41;10.35;;;6.90;;
21354;SDS011;10835;50.148;19.760;2023-10-13T07:25:23;20.05;;;7.57;;
21354;SDS011;10835;50.148;19.760;2023-10-13T07:27:53;17.25;;;7.55;;
21354;SDS011;10835;50.148;19.760;2023-10-13T07:30:24;18.98;;;8.13;;
21354;SDS011;10835;50.148;19.760;2023-10-13T07:32:54;19.27;;;8.15;;
21354;SDS011;10835;50.148;19.760;2023-10-13T07:35:27;13.25;;;7.72;;
21354;SDS011;10835;50.148;19.760;2023-10-13T07:37:58;16.38;;;8.15;;
21354;SDS011;10835;50.148;19.760;2023-10-13T07:40:29;13.85;;;7.32;;
21354;SDS011;10835;50.148;19.760;2023-10-13T07:43:16;11.45;;;7.13;;
21354;SDS011;10835;50.148;19.760;2023-10-13T07:45:48;17.98;;;7.20;;
21354;SDS011;10835;50.148;19.760;2023-10-13T07:48:20;13.30;;;7.32;;
21354;SDS011;10835;50.148;19.760;2023-10-13T07:50:58;13.48;;;6.20;;
21354;SDS011;10835;50.148;19.760;2023-10-13T07:53:30;10.85;;;6.05;;
21354;SDS011;10835;50.148;19.760;2023-10-13T07:56:05;11.85;;;6.25;;
21354;SDS011;10835;50.148;19.760;2023-10-13T07:58:35;10.43;;;6.15;;
21354;SDS011;10835;50.148;19.760;2023-10-13T08:01:14;15.25;;;6.60;;
21354;SDS011;10835;50.148;19.760;2023-10-13T08:03:45;11.77;;;6.13;;
21354;SDS011;10835;50.148;19.760;2023-10-13T08:06:14;15.75;;;6.18;;
21354;SDS011;10835;50.148;19.760;2023-10-13T08:08:48;10.77;;;5.55;;
21354;SDS011;10835;50.148;19.760;2023-10-13T08:11:35;12.05;;;6.18;;
21354;SDS011;10835;50.148;19.760;2023-10-13T08:14:04;9.32;;;5.63;;
21354;SDS011;10835;50.148;19.760;2023-10-13T08:17:05;11.82;;;5.50;;
21354;SDS011;10835;50.148;19.760;2023-10-13T08:19:37;10.07;;;5.95;;
21354;SDS011;10835;50.148;19.760;2023-10-13T08:22:12;10.80;;;5.88;;
21354;SDS011;10835;50.148;19.760;2023-10-13T08:24:51;9.77;;;4.25;;
21354;SDS011;10835;50.148;19.760;2023-10-13T08:27:43;9.15;;;5.28;;
21354;SDS011;10835;50.148;19.760;2023-10-13T08:30:32;10.25;;;5.63;;
21354;SDS011;10835;50.148;19.760;2023-10-13T08:33:18;8.95;;;5.53;;
21354;SDS011;10835;50.148;19.760;2023-10-13T08:35:51;13.23;;;5.32;;
21354;SDS011;10835;50.148;19.760;2023-10-13T08:38:22;10.93;;;5.05;;
21354;SDS011;10835;50.148;19.760;2023-10-13T08:40:58;11.82;;;5.32;;
21354;SDS011;10835;50.148;19.760;2023-10-13T08:43:46;8.40;;;4.90;;
21354;SDS011;10835;50.148;19.760;2023-10-13T08:46:19;10.73;;;5.80;;
21354;SDS011;10835;50.148;19.760;2023-10-13T08:48:57;11.85;;;5.95;;
21354;SDS011;10835;50.148;19.760;2023-10-13T08:51:34;12.75;;;5.95;;
21354;SDS011;10835;50.148;19.760;2023-10-13T08:54:16;7.97;;;5.07;;
21354;SDS011;10835;50.148;19.760;2023-10-13T08:57:01;10.63;;;4.63;;
21354;SDS011;10835;50.148;19.760;2023-10-13T08:59:57;11.90;;;5.38;;
21354;SDS011;10835;50.148;19.760;2023-10-13T09:02:47;10.25;;;5.03;;
21354;SDS011;10835;50.148;19.760;2023-10-13T09:05:34;9.23;;;4.97;;
21354;SDS011;10835;50.148;19.760;2023-10-13T09:08:09;10.38;;;5.72;;
21354;SDS011;10835;50.148;19.760;2023-10-13T09:10:42;12.02;;;5.97;;
21354;SDS011;10835;50.148;19.760;2023-10-13T09:13:35;14.93;;;5.30;;
21354;SDS011;10835;50.148;19.760;2023-10-13T09:16:13;15.05;;;5.72;;
21354;SDS011;10835;50.148;19.760;2023-10-13T09:18:49;10.73;;;5.82;;
21354;SDS011;10835;50.148;19.760;2023-10-13T09:21:19;11.30;;;5.28;;
21354;SDS011;10835;50.148;19.760;2023-10-13T09:23:56;12.50;;;5.60;;
21354;SDS011;10835;50.148;19.760;2023-10-13T09:26:44;9.98;;;4.90;;
21354;SDS011;10835;50.148;19.760;2023-10-13T09:29:16;10.02;;;5.07;;
21354;SDS011;10835;50.148;19.760;2023-10-13T09:31:48;11.85;;;5.88;;
21354;SDS011;10835;50.148;19.760;2023-10-13T09:34:28;16.63;;;5.88;;
21354;SDS011;10835;50.148;19.760;2023-10-13T09:37:00;9.77;;;4.47;;
21354;SDS011;10835;50.148;19.760;2023-10-13T09:39:31;11.98;;;4.60;;
21354;SDS011;10835;50.148;19.760;2023-10-13T09:42:12;8.23;;;3.58;;
21354;SDS011;10835;50.148;19.760;2023-10-13T09:44:44;11.80;;;5.00;;
21354;SDS011;10835;50.148;19.760;2023-10-13T09:47:21;11.23;;;6.07;;
21354;SDS011;10835;50.148;19.760;2023-10-13T09:50:07;11.30;;;5.47;;
21354;SDS011;10835;50.148;19.760;2023-10-13T09:52:49;9.98;;;4.72;;
21354;SDS011;10835;50.148;19.760;2023-10-13T09:55:21;9.05;;;4.53;;
21354;SDS011;10835;50.148;19.760;2023-10-13T09:58:00;9.60;;;5.20;;
21354;SDS011;10835;50.148;19.760;2023-10-13T10:00:37;10.82;;;4.78;;
21354;SDS011;10835;50.148;19.760;2023-10-13T10:03:24;11.57;;;4.82;;
21354;SDS011;10835;50.148;19.760;2023-10-13T10:06:07;10.77;;;4.07;;
21354;SDS011;10835;50.148;19.760;2023-10-13T10:08:43;6.55;;;3.95;;
21354;SDS011;10835;50.148;19.760;2023-10-13T10:11:29;9.88;;;4.28;;
21354;SDS011;10835;50.148;19.760;2023-10-13T10:14:16;8.63;;;3.05;;
21354;SDS011;10835;50.148;19.760;2023-10-13T10:16:56;10.57;;;4.78;;
21354;SDS011;10835;50.148;19.760;2023-10-13T10:19:46;7.63;;;3.88;;
21354;SDS011;10835;50.148;19.760;2023-10-13T10:22:24;7.82;;;4.13;;
21354;SDS011;10835;50.148;19.760;2023-10-13T10:25:00;9.32;;;4.38;;
21354;SDS011;10835;50.148;19.760;2023-10-13T10:27:31;9.18;;;4.20;;
21354;SDS011;10835;50.148;19.760;2023-10-13T10:30:00;10.88;;;4.60;;
21354;SDS011;10835;50.148;19.760;2023-10-13T10:32:32;8.98;;;3.70;;
21354;SDS011;10835;50.148;19.760;2023-10-13T10:35:07;11.70;;;4.28;;
21354;SDS011;10835;50.148;19.760;2023-10-13T10:37:42;7.60;;;3.45;;
21354;SDS011;10835;50.148;19.760;2023-10-13T10:40:20;8.18;;;3.60;;
21354;SDS011;10835;50.148;19.760;2023-10-13T10:43:13;7.88;;;3.17;;
21354;SDS011;10835;50.148;19.760;2023-10-13T10:45:59;11.88;;;3.75;;
21354;SDS011;10835;50.148;19.760;2023-10-13T10:48:30;7.80;;;3.80;;
21354;SDS011;10835;50.148;19.760;2023-10-13T10:51:02;10.68;;;4.00;;
21354;SDS011;10835;50.148;19.760;2023-10-13T10:53:41;10.85;;;3.90;;
21354;SDS011;10835;50.148;19.760;2023-10-13T10:56:14;7.15;;;3.60;;
21354;SDS011;10835;50.148;19.760;2023-10-13T10:58:53;10.10;;;3.70;;
21354;SDS011;10835;50.148;19.760;2023-10-13T11:01:23;8.65;;;4.25;;
21354;SDS011;10835;50.148;19.760;2023-10-13T11:04:03;6.07;;;3.55;;
21354;SDS011;10835;50.148;19.760;2023-10-13T11:06:46;8.57;;;4.20;;
21354;SDS011;10835;50.148;19.760;2023-10-13T11:09:15;7.63;;;3.80;;
21354;SDS011;10835;50.148;19.760;2023-10-13T11:12:08;10.55;;;4.07;;
21354;SDS011;10835;50.148;19.760;2023-10-13T11:14:59;7.47;;;4.15;;
21354;SDS011;10835;50.148;19.760;2023-10-13T11:17:30;8.82;;;3.40;;
21354;SDS011;10835;50.148;19.760;2023-10-13T11:20:09;7.65;;;3.42;;
21354;SDS011;10835;50.148;19.760;2023-10-13T11:22:53;6.63;;;3.95;;
21354;SDS011;10835;50.148;19.760;2023-10-13T11:25:23;7.00;;;3.67;;
21354;SDS011;10835;50.148;19.760;2023-10-13T11:28:09;6.50;;;3.28;;
21354;SDS011;10835;50.148;19.760;2023-10-13T11:30:44;5.07;;;3.25;;
21354;SDS011;10835;50.148;19.760;2023-10-13T11:33:16;7.95;;;4.10;;
21354;SDS011;10835;50.148;19.760;2023-10-13T11:35:50;6.13;;;3.97;;
21354;SDS011;10835;50.148;19.760;2023-10-13T11:38:29;8.35;;;3.90;;
21354;SDS011;10835;50.148;19.760;2023-10-13T11:41:09;12.70;;;4.03;;
21354;SDS011;10835;50.148;19.760;2023-10-13T11:43:42;10.10;;;4.20;;
21354;SDS011;10835;50.148;19.760;2023-10-13T11:46:31;8.55;;;3.22;;
21354;SDS011;10835;50.148;19.760;2023-10-13T11:49:26;6.72;;;3.20;;
21354;SDS011;10835;50.148;19.760;2023-10-13T11:52:07;7.32;;;3.15;;
21354;SDS011;10835;50.148;19.760;2023-10-13T11:54:45;11.93;;;3.35;;
21354;SDS011;10835;50.148;19.760;2023-10-13T11:57:14;7.45;;;3.22;;
21354;SDS011;10835;50.148;19.760;2023-10-13T11:59:46;8.07;;;3.58;;
21354;SDS011;10835;50.148;19.760;2023-10-13T12:02:23;6.45;;;3.83;;
21354;SDS011;10835;50.148;19.760;2023-10-13T12:05:09;5.60;;;3.47;;
21354;SDS011;10835;50.148;19.760;2023-10-13T12:07:43;8.02;;;3.60;;
21354;SDS011;10835;50.148;19.760;2023-10-13T12:10:17;5.68;;;2.78;;
21354;SDS011;10835;50.148;19.760;2023-10-13T12:13:01;9.15;;;3.60;;
21354;SDS011;10835;50.148;19.760;2023-10-13T12:15:37;5.78;;;2.80;;
21354;SDS011;10835;50.148;19.760;2023-10-13T12:18:15;6.40;;;3.13;;
21354;SDS011;10835;50.148;19.760;2023-10-13T12:20:46;5.10;;;2.90;;
21354;SDS011;10835;50.148;19.760;2023-10-13T12:23:16;6.65;;;3.45;;
21354;SDS011;10835;50.148;19.760;2023-10-13T12:25:51;7.70;;;2.92;;
21354;SDS011;10835;50.148;19.760;2023-10-13T12:28:24;7.65;;;3.55;;
21354;SDS011;10835;50.148;19.760;2023-10-13T12:30:55;6.38;;;3.50;;
21354;SDS011;10835;50.148;19.760;2023-10-13T12:33:26;7.05;;;3.45;;
21354;SDS011;10835;50.148;19.760;2023-10-13T12:36:04;4.47;;;2.90;;
21354;SDS011;10835;50.148;19.760;2023-10-13T12:38:41;4.80;;;2.65;;
21354;SDS011;10835;50.148;19.760;2023-10-13T12:41:34;6.45;;;3.15;;
21354;SDS011;10835;50.148;19.760;2023-10-13T12:44:20;4.32;;;3.10;;
21354;SDS011;10835;50.148;19.760;2023-10-13T12:47:06;4.00;;;3.00;;
21354;SDS011;10835;50.148;19.760;2023-10-13T12:49:52;8.40;;;2.60;;
21354;SDS011;10835;50.148;19.760;2023-10-13T12:52:26;8.70;;;2.95;;
21354;SDS011;10835;50.148;19.760;2023-10-13T12:54:59;5.93;;;3.05;;
21354;SDS011;10835;50.148;19.760;2023-10-13T12:57:35;4.78;;;2.80;;
21354;SDS011;10835;50.148;19.760;2023-10-13T13:00:11;5.03;;;3.17;;
21354;SDS011;10835;50.148;19.760;2023-10-13T13:02:50;5.50;;;2.88;;
21354;SDS011;10835;50.148;19.760;2023-10-13T13:05:22;6.45;;;3.30;;
21354;SDS011;10835;50.148;19.760;2023-10-13T13:07:55;4.30;;;2.95;;
21354;SDS011;10835;50.148;19.760;2023-10-13T13:10:26;6.85;;;3.00;;
21354;SDS011;10835;50.148;19.760;2023-10-13T13:13:04;5.50;;;3.22;;
21354;SDS011;10835;50.148;19.760;2023-10-13T13:15:34;7.43;;;3.42;;
21354;SDS011;10835;50.148;19.760;2023-10-13T13:18:03;4.65;;;3.03;;
21354;SDS011;10835;50.148;19.760;2023-10-13T13:20:38;3.42;;;2.22;;
21354;SDS011;10835;50.148;19.760;2023-10-13T13:23:19;7.32;;;2.35;;
21354;SDS011;10835;50.148;19.760;2023-10-13T13:25:53;5.25;;;2.75;;
21354;SDS011;10835;50.148;19.760;2023-10-13T13:28:26;7.20;;;2.63;;
21354;SDS011;10835;50.148;19.760;2023-10-13T13:30:56;4.97;;;2.38;;
21354;SDS011;10835;50.148;19.760;2023-10-13T13:33:25;6.30;;;2.50;;
21354;SDS011;10835;50.148;19.760;2023-10-13T13:36:00;5.30;;;2.65;;
21354;SDS011;10835;50.148;19.760;2023-10-13T13:38:31;5.85;;;2.78;;
21354;SDS011;10835;50.148;19.760;2023-10-13T13:40:59;5.70;;;2.60;;
21354;SDS011;10835;50.148;19.760;2023-10-13T13:43:32;8.93;;;2.75;;
21354;SDS011;10835;50.148;19.760;2023-10-13T13:46:05;5.20;;;2.53;;
21354;SDS011;10835;50.148;19.760;2023-10-13T13:48:37;4.47;;;2.58;;
21354;SDS011;10835;50.148;19.760;2023-10-13T13:51:08;6.63;;;2.97;;
21354;SDS011;10835;50.148;19.760;2023-10-13T13:53:53;8.40;;;2.50;;
21354;SDS011;10835;50.148;19.760;2023-10-13T13:56:22;11.80;;;2.67;;
21354;SDS011;10835;50.148;19.760;2023-10-13T13:58:55;3.47;;;2.22;;
21354;SDS011;10835;50.148;19.760;2023-10-13T14:01:25;7.18;;;2.78;;
21354;SDS011;10835;50.148;19.760;2023-10-13T14:03:56;4.40;;;2.20;;
21354;SDS011;10835;50.148;19.760;2023-10-13T14:06:29;4.50;;;2.50;;
21354;SDS011;10835;50.148;19.760;2023-10-13T14:08:59;3.60;;;2.08;;
21354;SDS011;10835;50.148;19.760;2023-10-13T14:11:30;3.58;;;2.35;;
21354;SDS011;10835;50.148;19.760;2023-10-13T14:14:19;4.15;;;1.80;;
21354;SDS011;10835;50.148;19.760;2023-10-13T14:17:01;6.03;;;2.20;;
21354;SDS011;10835;50.148;19.760;2023-10-13T14:19:36;3.97;;;2.10;;
21354;SDS011;10835;50.148;19.760;2023-10-13T14:22:08;4.53;;;2.35;;
21354;SDS011;10835;50.148;19.760;2023-10-13T14:24:39;9.05;;;2.22;;
21354;SDS011;10835;50.148;19.760;2023-10-13T14:27:18;3.03;;;2.00;;
21354;SDS011;10835;50.148;19.760;2023-10-13T14:29:51;6.57;;;2.22;;
21354;SDS011;10835;50.148;19.760;2023-10-13T14:32:24;6.05;;;2.58;;
21354;SDS011;10835;50.148;19.760;2023-10-13T14:34:54;5.43;;;2.33;;
21354;SDS011;10835;50.148;19.760;2023-10-13T14:37:23;4.72;;;1.98;;
21354;SDS011;10835;50.148;19.760;2023-10-13T14:39:58;6.00;;;2.53;;
21354;SDS011;10835;50.148;19.760;2023-10-13T14:42:29;4.18;;;1.98;;
21354;SDS011;10835;50.148;19.760;2023-10-13T14:45:04;7.63;;;1.77;;
21354;SDS011;10835;50.148;19.760;2023-10-13T14:47:39;2.88;;;1.90;;
21354;SDS011;10835;50.148;19.760;2023-10-13T14:50:08;2.38;;;1.80;;
21354;SDS011;10835;50.148;19.760;2023-10-13T14:52:46;5.68;;;1.90;;
21354;SDS011;10835;50.148;19.760;2023-10-13T14:55:16;3.08;;;1.80;;
21354;SDS011;10835;50.148;19.760;2023-10-13T14:57:50;2.20;;;1.60;;
21354;SDS011;10835;50.148;19.760;2023-10-13T15:00:20;7.22;;;1.95;;
21354;SDS011;10835;50.148;19.760;2023-10-13T15:02:55;2.88;;;1.52;;
21354;SDS011;10835;50.148;19.760;2023-10-13T15:05:23;6.90;;;1.67;;
21354;SDS011;10835;50.148;19.760;2023-10-13T15:07:57;4.22;;;1.48;;
21354;SDS011;10835;50.148;19.760;2023-10-13T15:10:26;4.75;;;1.67;;
21354;SDS011;10835;50.148;19.760;2023-10-13T15:12:54;6.72;;;1.90;;
21354;SDS011;10835;50.148;19.760;2023-10-13T15:15:27;3.03;;;1.33;;
21354;SDS011;10835;50.148;19.760;2023-10-13T15:17:58;3.40;;;1.40;;
21354;SDS011;10835;50.148;19.760;2023-10-13T15:20:27;2.22;;;1.70;;
21354;SDS011;10835;50.148;19.760;2023-10-13T15:22:56;3.00;;;1.88;;
21354;SDS011;10835;50.148;19.760;2023-10-13T15:25:27;3.78;;;2.05;;